createdAt,value
2022-10-07T00:00:31.112Z,9.70
2022-10-07T00:02:58.076Z,9.80
2022-10-07T00:05:25.068Z,9.90
2022-10-07T00:07:51.995Z,9.90
2022-10-07T00:10:18.900Z,10.00
2022-10-07T00:12:45.879Z,10.00
2022-10-07T00:15:13.388Z,10.10
2022-10-07T00:17:40.378Z,10.00
2022-10-07T00:20:07.727Z,10.00
2022-10-07T00:22:34.694Z,10.00
2022-10-07T00:25:01.744Z,10.10
2022-10-07T00:27:28.749Z,10.10
2022-10-07T00:29:55.712Z,10.10
2022-10-07T00:32:22.759Z,10.10
2022-10-07T00:34:49.748Z,10.10
2022-10-07T00:37:16.705Z,10.10
2022-10-07T00:39:44.043Z,10.10
2022-10-07T00:42:12.840Z,10.10
2022-10-07T00:44:48.715Z,10.10
2022-10-07T00:47:19.029Z,10.10
2022-10-07T00:49:51.325Z,10.20
2022-10-07T00:52:20.541Z,10.10
2022-10-07T00:54:50.295Z,10.20
2022-10-07T00:57:17.341Z,10.20
2022-10-07T00:59:44.379Z,10.20
2022-10-07T01:02:11.411Z,10.20
2022-10-07T01:04:38.854Z,10.10
2022-10-07T01:07:06.390Z,10.10
2022-10-07T01:09:34.239Z,10.10
2022-10-07T01:12:07.826Z,9.80
2022-10-07T01:14:53.729Z,9.80
2022-10-07T01:17:20.798Z,9.70
2022-10-07T01:19:50.818Z,9.60
2022-10-07T01:22:17.888Z,9.50
2022-10-07T01:24:53.322Z,9.40
2022-10-07T01:27:22.256Z,9.40
2022-10-07T01:29:58.677Z,9.50
2022-10-07T01:32:28.460Z,9.40
2022-10-07T01:34:55.983Z,9.40
2022-10-07T01:37:24.229Z,9.40
2022-10-07T01:39:53.733Z,9.30
2022-10-07T01:42:21.298Z,9.40
2022-10-07T01:44:52.843Z,9.40
2022-10-07T01:47:19.846Z,9.40
2022-10-07T01:49:47.968Z,9.30
2022-10-07T01:52:26.488Z,9.30
2022-10-07T01:55:07.353Z,9.30
2022-10-07T01:57:40.937Z,9.30
2022-10-07T02:00:10.257Z,9.40
2022-10-07T02:02:48.921Z,9.60
2022-10-07T02:05:21.034Z,9.50
2022-10-07T02:07:57.198Z,9.60
2022-10-07T02:10:56.678Z,9.70
2022-10-07T02:13:31.228Z,9.70
2022-10-07T02:16:10.044Z,9.80
2022-10-07T02:18:38.450Z,9.80
2022-10-07T02:21:07.060Z,9.80
2022-10-07T02:23:37.640Z,9.80
2022-10-07T02:26:05.262Z,9.80
2022-10-07T02:28:33.379Z,9.70
2022-10-07T02:31:02.835Z,9.50
2022-10-07T02:33:32.402Z,9.40
2022-10-07T02:36:03.723Z,9.50
2022-10-07T02:38:30.894Z,9.50
2022-10-07T02:41:12.446Z,9.50
2022-10-07T02:43:48.788Z,9.50
2022-10-07T02:46:20.366Z,9.40
2022-10-07T02:48:54.257Z,9.20
2022-10-07T02:51:22.990Z,9.20
2022-10-07T02:53:53.257Z,9.20
2022-10-07T02:56:22.442Z,9.30
2022-10-07T02:58:50.075Z,9.30
2022-10-07T03:01:22.895Z,9.30
2022-10-07T03:03:50.833Z,9.30
2022-10-07T03:06:23.150Z,9.40
2022-10-07T03:08:51.644Z,9.40
2022-10-07T03:11:18.781Z,9.40
2022-10-07T03:13:47.125Z,9.40
2022-10-07T03:16:14.118Z,9.50
2022-10-07T03:18:41.449Z,9.50
2022-10-07T03:21:18.388Z,9.50
2022-10-07T03:23:50.233Z,9.60
2022-10-07T03:26:19.494Z,9.60
2022-10-07T03:28:47.646Z,9.60
2022-10-07T03:31:15.650Z,9.60
2022-10-07T03:33:47.478Z,9.60
2022-10-07T03:36:14.651Z,9.50
2022-10-07T03:38:44.585Z,9.50
2022-10-07T03:41:12.816Z,9.50
2022-10-07T03:43:40.120Z,9.50
2022-10-07T03:46:08.955Z,9.60
2022-10-07T03:48:37.823Z,9.60
2022-10-07T03:51:04.813Z,9.60
2022-10-07T03:53:34.477Z,9.50
2022-10-07T03:56:02.876Z,9.50
2022-10-07T03:58:31.463Z,9.60
2022-10-07T04:01:10.290Z,9.60
2022-10-07T04:03:39.664Z,9.60
2022-10-07T04:06:07.855Z,9.70
2022-10-07T04:08:35.452Z,9.90
2022-10-07T04:11:03.992Z,10.00
2022-10-07T04:13:32.322Z,10.10
2022-10-07T04:16:05.268Z,10.10
2022-10-07T04:18:32.557Z,10.20
2022-10-07T04:21:00.473Z,10.20
2022-10-07T04:23:27.824Z,10.20
2022-10-07T04:25:55.402Z,10.20
2022-10-07T04:28:26.124Z,10.30
2022-10-07T04:31:03.468Z,10.30
2022-10-07T04:33:34.745Z,10.30
2022-10-07T04:36:05.797Z,10.30
2022-10-07T04:38:33.512Z,10.30
2022-10-07T04:41:05.685Z,10.30
2022-10-07T04:43:36.055Z,10.40
2022-10-07T04:46:11.674Z,10.40
2022-10-07T04:48:43.739Z,10.40
2022-10-07T04:51:10.997Z,10.50
2022-10-07T04:53:39.825Z,10.50
2022-10-07T04:56:08.985Z,10.50
2022-10-07T04:58:36.181Z,10.50
2022-10-07T05:01:07.665Z,10.40
2022-10-07T05:03:36.129Z,10.40
2022-10-07T05:06:05.723Z,10.50
2022-10-07T05:08:33.965Z,10.50
2022-10-07T05:11:01.769Z,10.60
2022-10-07T05:13:34.397Z,10.70
2022-10-07T05:16:02.906Z,10.70
2022-10-07T05:18:30.694Z,10.70
2022-10-07T05:21:06.041Z,10.80
2022-10-07T05:23:36.893Z,10.80
2022-10-07T05:26:10.606Z,10.80
2022-10-07T05:28:41.970Z,10.80
2022-10-07T05:31:12.354Z,10.90
2022-10-07T05:33:40.867Z,10.80
2022-10-07T05:36:08.972Z,10.80
2022-10-07T05:38:37.324Z,10.80
2022-10-07T05:41:06.412Z,10.80
2022-10-07T05:43:36.913Z,10.70
2022-10-07T05:46:16.133Z,10.70
2022-10-07T05:48:48.709Z,10.70
2022-10-07T05:51:16.534Z,10.80
2022-10-07T05:53:43.594Z,10.80
2022-10-07T05:56:12.765Z,10.90
2022-10-07T05:58:39.966Z,11.00
2022-10-07T06:01:14.260Z,11.10
2022-10-07T06:03:43.278Z,11.20
2022-10-07T06:06:10.791Z,11.30
2022-10-07T06:08:37.806Z,11.50
2022-10-07T06:11:24.331Z,11.50
2022-10-07T06:13:52.919Z,11.70
2022-10-07T06:16:20.390Z,12.10
2022-10-07T06:18:50.653Z,12.70
2022-10-07T06:21:20.631Z,13.80
2022-10-07T06:23:53.983Z,15.10
2022-10-07T06:26:25.544Z,16.30
2022-10-07T06:28:54.361Z,17.80
2022-10-07T06:31:25.986Z,18.90
2022-10-07T06:33:58.672Z,19.90
2022-10-07T06:36:26.141Z,20.80
2022-10-07T06:38:55.684Z,21.20
2022-10-07T06:41:28.009Z,21.40
2022-10-07T06:44:16.358Z,20.90
2022-10-07T06:46:45.057Z,19.70
2022-10-07T06:49:12.247Z,18.60
2022-10-07T06:51:39.379Z,18.40
2022-10-07T06:54:06.302Z,17.50
2022-10-07T06:56:33.988Z,17.20
2022-10-07T06:59:02.034Z,16.70
2022-10-07T07:01:37.157Z,16.30
2022-10-07T07:04:04.411Z,16.60
2022-10-07T07:06:35.494Z,17.30
2022-10-07T07:09:04.753Z,18.60
2022-10-07T07:11:37.011Z,19.30
2022-10-07T07:14:15.284Z,18.80
2022-10-07T07:16:47.746Z,18.40
2022-10-07T07:19:15.090Z,19.40
2022-10-07T07:21:45.540Z,20.40
2022-10-07T07:24:17.217Z,20.50
2022-10-07T07:26:45.012Z,20.50
2022-10-07T07:29:13.026Z,21.40
2022-10-07T07:31:45.263Z,22.20
2022-10-07T07:34:14.297Z,23.70
2022-10-07T07:36:47.359Z,24.60
2022-10-07T07:39:17.413Z,24.60
2022-10-07T07:41:50.873Z,25.70
2022-10-07T07:44:20.381Z,26.50
2022-10-07T07:46:51.241Z,27.60
2022-10-07T07:49:21.078Z,28.20
2022-10-07T07:51:48.292Z,27.90
2022-10-07T07:54:21.492Z,28.50
2022-10-07T07:56:49.464Z,28.50
2022-10-07T07:59:18.796Z,28.40
2022-10-07T08:01:48.176Z,28.90
2022-10-07T08:04:16.665Z,29.30
2022-10-07T08:06:44.096Z,29.20
2022-10-07T08:09:12.882Z,29.20
2022-10-07T08:11:45.782Z,29.20
2022-10-07T08:14:16.343Z,29.30
2022-10-07T08:16:45.062Z,28.60
2022-10-07T08:19:12.544Z,27.90
2022-10-07T08:21:39.854Z,27.20
2022-10-07T08:24:11.703Z,26.00
2022-10-07T08:26:39.896Z,24.50
2022-10-07T08:29:09.675Z,23.60
2022-10-07T08:31:37.406Z,22.50
2022-10-07T08:34:05.264Z,21.70
2022-10-07T08:36:32.956Z,20.90
2022-10-07T08:39:00.705Z,20.10
2022-10-07T08:41:32.982Z,19.60
2022-10-07T08:44:18.360Z,19.10
2022-10-07T08:46:48.234Z,18.40
2022-10-07T08:49:17.715Z,18.00
2022-10-07T08:51:44.830Z,17.40
2022-10-07T08:54:15.898Z,17.30
2022-10-07T08:56:43.430Z,17.20
2022-10-07T08:59:13.386Z,17.00
2022-10-07T09:01:47.041Z,17.00
2022-10-07T09:04:17.142Z,16.90
2022-10-07T09:07:02.668Z,16.90
2022-10-07T09:09:34.724Z,16.80
2022-10-07T09:12:03.335Z,16.60
2022-10-07T09:14:41.515Z,16.40
2022-10-07T09:17:13.239Z,16.20
2022-10-07T09:19:43.811Z,15.90
2022-10-07T09:22:19.616Z,15.70
2022-10-07T09:24:47.441Z,15.50
2022-10-07T09:27:16.293Z,15.40
2022-10-07T09:29:43.436Z,15.10
2022-10-07T09:32:15.269Z,15.00
2022-10-07T09:34:42.165Z,14.80
2022-10-07T09:37:09.094Z,14.80
2022-10-07T09:39:36.153Z,14.80
2022-10-07T09:42:05.411Z,14.70
2022-10-07T09:44:32.529Z,14.80
2022-10-07T09:47:02.405Z,14.70
2022-10-07T09:49:29.387Z,14.60
2022-10-07T09:52:02.471Z,14.50
2022-10-07T09:54:30.655Z,14.70
2022-10-07T09:56:59.662Z,14.90
2022-10-07T09:59:27.632Z,15.20
2022-10-07T10:01:54.615Z,15.50
2022-10-07T10:04:24.959Z,15.50
2022-10-07T10:06:52.889Z,15.20
2022-10-07T10:09:21.940Z,14.90
2022-10-07T10:12:15.295Z,14.90
2022-10-07T10:14:52.970Z,14.90
2022-10-07T10:17:40.144Z,14.60
2022-10-07T10:20:25.901Z,14.50
2022-10-07T10:22:52.824Z,14.60
2022-10-07T10:26:04.803Z,14.70
2022-10-07T10:28:50.526Z,14.80
2022-10-07T10:31:30.267Z,14.50
2022-10-07T10:34:04.683Z,14.50
2022-10-07T10:36:33.226Z,14.40
2022-10-07T10:39:06.277Z,14.60
2022-10-07T10:41:43.319Z,14.90
2022-10-07T10:44:32.341Z,15.20
2022-10-07T10:47:12.654Z,15.60
2022-10-07T10:50:04.507Z,15.40
2022-10-07T10:52:40.668Z,14.70
2022-10-07T10:55:13.684Z,14.50
2022-10-07T10:57:47.532Z,14.70
2022-10-07T11:00:21.832Z,14.90
2022-10-07T11:03:05.834Z,15.10
2022-10-07T11:05:33.423Z,15.20
2022-10-07T11:08:17.336Z,15.10
2022-10-07T11:10:50.819Z,15.00
2022-10-07T11:13:27.499Z,15.40
2022-10-07T11:15:57.281Z,15.20
2022-10-07T11:18:35.273Z,15.30
2022-10-07T11:21:04.049Z,15.20
2022-10-07T11:23:41.751Z,15.30
2022-10-07T11:26:19.323Z,15.30
2022-10-07T11:28:46.687Z,15.30
2022-10-07T11:31:20.208Z,15.10
2022-10-07T11:34:13.648Z,14.80
2022-10-07T11:36:43.695Z,14.80
2022-10-07T11:39:10.703Z,15.10
2022-10-07T11:41:46.654Z,15.20
2022-10-07T11:44:23.837Z,15.50
2022-10-07T11:46:51.875Z,15.40
2022-10-07T11:49:18.989Z,14.90
2022-10-07T11:51:45.868Z,14.80
2022-10-07T11:54:14.992Z,14.90
2022-10-07T11:56:50.687Z,15.20
2022-10-07T11:59:36.738Z,15.40
2022-10-07T12:02:04.132Z,15.60
2022-10-07T12:04:31.052Z,15.60
2022-10-07T12:07:16.759Z,15.50
2022-10-07T12:10:14.995Z,15.30
2022-10-07T12:12:42.688Z,15.20
2022-10-07T12:15:25.395Z,15.40
2022-10-07T12:17:56.631Z,15.60
2022-10-07T12:20:37.364Z,15.50
2022-10-07T12:23:19.455Z,15.70
2022-10-07T12:25:47.891Z,15.80
2022-10-07T12:28:35.142Z,15.70
2022-10-07T12:31:02.060Z,15.50
2022-10-07T12:33:37.660Z,15.60
2022-10-07T12:36:23.883Z,15.60
2022-10-07T12:38:57.522Z,15.50
2022-10-07T12:41:25.636Z,15.40
2022-10-07T12:43:56.050Z,15.40
2022-10-07T12:46:23.707Z,15.70
2022-10-07T12:48:54.831Z,15.80
2022-10-07T12:51:25.251Z,15.90
2022-10-07T12:53:52.629Z,15.90
2022-10-07T12:56:22.000Z,15.80
2022-10-07T12:59:25.985Z,15.40
2022-10-07T13:02:19.335Z,15.20
2022-10-07T13:04:46.952Z,14.70
2022-10-07T13:07:32.850Z,14.30
2022-10-07T13:09:59.718Z,14.30
2022-10-07T13:12:51.398Z,14.40
2022-10-07T13:15:25.371Z,14.50
2022-10-07T13:18:12.652Z,14.60
2022-10-07T13:20:58.336Z,14.40
2022-10-07T13:23:27.518Z,14.60
2022-10-07T13:25:55.894Z,14.70
2022-10-07T13:28:44.900Z,14.50
2022-10-07T13:31:13.825Z,14.50
2022-10-07T13:33:43.284Z,14.60
2022-10-07T13:36:19.447Z,14.60
2022-10-07T13:38:47.328Z,14.30
2022-10-07T13:41:20.264Z,14.00
2022-10-07T13:43:47.677Z,14.00
2022-10-07T13:46:15.298Z,13.90
2022-10-07T13:48:45.427Z,13.80
2022-10-07T13:51:31.621Z,14.00
2022-10-07T13:53:59.658Z,14.00
2022-10-07T13:56:47.739Z,13.80
2022-10-07T13:59:17.909Z,13.70
2022-10-07T14:01:45.791Z,13.70
2022-10-07T14:04:19.013Z,13.90
2022-10-07T14:06:51.077Z,13.80
2022-10-07T14:09:41.273Z,13.80
2022-10-07T14:12:10.146Z,13.70
2022-10-07T14:14:38.630Z,13.50
2022-10-07T14:17:19.547Z,13.60
2022-10-07T14:19:51.059Z,13.40
2022-10-07T14:22:20.971Z,13.10
2022-10-07T14:24:53.509Z,13.10
2022-10-07T14:27:39.842Z,13.00
2022-10-07T14:30:25.475Z,13.10
2022-10-07T14:33:17.805Z,13.10
2022-10-07T14:35:45.636Z,13.20
2022-10-07T14:38:19.259Z,13.50
2022-10-07T14:40:46.133Z,13.60
2022-10-07T14:43:13.213Z,13.40
2022-10-07T14:45:40.148Z,13.20
2022-10-07T14:48:11.809Z,13.10
2022-10-07T14:50:39.777Z,13.20
2022-10-07T14:53:11.955Z,13.20
2022-10-07T14:55:39.130Z,13.10
2022-10-07T14:58:06.152Z,13.10
2022-10-07T15:00:38.688Z,13.10
2022-10-07T15:03:06.546Z,13.00
2022-10-07T15:05:34.021Z,13.00
2022-10-07T15:08:01.482Z,13.00
2022-10-07T15:10:28.486Z,13.10
2022-10-07T15:12:56.261Z,13.10
2022-10-07T15:15:23.116Z,13.10
2022-10-07T15:17:50.089Z,13.10
2022-10-07T15:20:17.480Z,13.10
2022-10-07T15:22:45.438Z,13.00
2022-10-07T15:25:12.764Z,12.90
2022-10-07T15:27:40.110Z,12.80
2022-10-07T15:30:07.398Z,12.80
2022-10-07T15:32:34.608Z,12.80
2022-10-07T15:35:01.707Z,12.70
2022-10-07T15:37:28.682Z,12.70
2022-10-07T15:39:55.857Z,12.70
2022-10-07T15:42:26.625Z,12.70
2022-10-07T15:44:53.830Z,12.60
2022-10-07T15:47:20.887Z,12.60
2022-10-07T15:49:48.166Z,12.60
2022-10-07T15:52:15.112Z,12.60
2022-10-07T15:54:41.966Z,12.60
2022-10-07T15:57:09.433Z,12.60
2022-10-07T15:59:36.372Z,12.50
2022-10-07T16:02:04.372Z,12.50
2022-10-07T16:04:31.460Z,12.50
2022-10-07T16:06:58.540Z,12.50
2022-10-07T16:09:25.517Z,12.50
2022-10-07T16:11:52.502Z,12.50
2022-10-07T16:14:19.411Z,12.50
2022-10-07T16:16:46.356Z,12.40
2022-10-07T16:19:13.245Z,12.40
2022-10-07T16:21:41.325Z,12.20
2022-10-07T16:24:15.892Z,12.10
2022-10-07T16:26:43.347Z,11.70
2022-10-07T16:29:32.885Z,11.40
2022-10-07T16:32:00.033Z,11.30
2022-10-07T16:34:28.293Z,11.30
2022-10-07T16:36:55.982Z,11.40
2022-10-07T16:39:23.199Z,11.40
2022-10-07T16:41:51.902Z,11.50
2022-10-07T16:44:19.572Z,11.40
2022-10-07T16:46:46.967Z,11.40
2022-10-07T16:49:16.197Z,11.40
2022-10-07T16:51:44.895Z,11.30
2022-10-07T16:54:16.419Z,11.10
2022-10-07T16:56:48.214Z,11.00
2022-10-07T16:59:24.760Z,10.70
2022-10-07T17:01:52.824Z,10.40
2022-10-07T17:04:20.168Z,10.30
2022-10-07T17:06:47.346Z,10.20
2022-10-07T17:09:14.750Z,10.20
2022-10-07T17:11:42.125Z,10.30
2022-10-07T17:14:19.048Z,10.30
2022-10-07T17:16:47.440Z,10.30
2022-10-07T17:19:22.149Z,10.00
2022-10-07T17:21:49.435Z,10.10
2022-10-07T17:24:20.526Z,10.10
2022-10-07T17:26:48.110Z,10.10
2022-10-07T17:29:18.375Z,10.20
2022-10-07T17:31:48.390Z,10.10
2022-10-07T17:34:19.458Z,10.10
2022-10-07T17:36:47.987Z,10.10
2022-10-07T17:39:15.428Z,10.30
2022-10-07T17:41:42.484Z,10.30
2022-10-07T17:44:10.323Z,10.30
2022-10-07T17:46:39.406Z,10.30
2022-10-07T17:49:07.356Z,10.20
2022-10-07T17:51:34.835Z,10.30
2022-10-07T17:54:02.480Z,10.20
2022-10-07T17:56:29.925Z,10.20
2022-10-07T17:58:57.277Z,10.40
2022-10-07T18:01:27.275Z,10.50
2022-10-07T18:03:57.612Z,10.60
2022-10-07T18:06:25.303Z,10.70
2022-10-07T18:08:52.341Z,10.80
2022-10-07T18:11:19.269Z,10.90
2022-10-07T18:14:04.890Z,10.90
2022-10-07T18:16:32.844Z,10.90
2022-10-07T18:19:00.093Z,10.80
2022-10-07T18:21:29.941Z,10.90
2022-10-07T18:23:57.700Z,10.90
2022-10-07T18:26:24.971Z,10.90
2022-10-07T18:28:51.913Z,10.90
2022-10-07T18:31:18.884Z,11.00
2022-10-07T18:33:46.447Z,11.10
2022-10-07T18:36:14.863Z,11.10
2022-10-07T18:38:42.534Z,11.10
2022-10-07T18:41:16.614Z,11.10
2022-10-07T18:43:44.253Z,11.00
2022-10-07T18:46:12.781Z,11.00
2022-10-07T18:48:41.758Z,10.80
2022-10-07T18:51:09.780Z,10.60
2022-10-07T18:53:37.362Z,10.40
2022-10-07T18:56:06.002Z,10.20
2022-10-07T18:58:37.192Z,10.10
2022-10-07T19:01:08.380Z,10.00
2022-10-07T19:03:35.376Z,9.90
2022-10-07T19:06:10.032Z,9.70
2022-10-07T19:08:37.161Z,9.70
2022-10-07T19:11:08.106Z,9.70
2022-10-07T19:14:11.011Z,9.60
2022-10-07T19:16:38.166Z,9.60
2022-10-07T19:19:06.695Z,9.50
2022-10-07T19:21:34.360Z,9.50
2022-10-07T19:24:01.908Z,9.60
2022-10-07T19:26:40.351Z,9.70
2022-10-07T19:29:09.339Z,9.70
2022-10-07T19:31:40.622Z,9.80
2022-10-07T19:34:09.349Z,9.80
2022-10-07T19:36:37.569Z,9.90
2022-10-07T19:39:04.666Z,9.90
2022-10-07T19:41:32.993Z,10.00
2022-10-07T19:44:00.330Z,10.00
2022-10-07T19:46:28.506Z,10.00
2022-10-07T19:48:57.008Z,10.00
2022-10-07T19:51:24.543Z,10.00
2022-10-07T19:53:51.604Z,10.00
2022-10-07T19:56:23.105Z,10.10
2022-10-07T19:58:51.140Z,10.10
2022-10-07T20:01:19.278Z,10.10
2022-10-07T20:03:46.217Z,10.10
2022-10-07T20:06:14.259Z,10.10
2022-10-07T20:08:42.229Z,10.10
2022-10-07T20:11:09.797Z,10.10
2022-10-07T20:13:37.206Z,10.10
2022-10-07T20:16:16.369Z,10.10
2022-10-07T20:18:44.133Z,10.10
2022-10-07T20:21:13.212Z,10.10
2022-10-07T20:23:41.284Z,10.00
2022-10-07T20:26:09.175Z,9.80
2022-10-07T20:28:37.884Z,9.80
2022-10-07T20:31:05.732Z,9.60
2022-10-07T20:33:39.535Z,9.30
2022-10-07T20:36:07.178Z,9.10
2022-10-07T20:38:54.544Z,8.90
2022-10-07T20:41:40.554Z,8.90
2022-10-07T20:44:08.065Z,8.90
2022-10-07T20:46:34.965Z,8.80
2022-10-07T20:49:02.070Z,8.70
2022-10-07T20:51:29.673Z,8.60
2022-10-07T20:53:56.550Z,8.60
2022-10-07T20:56:23.388Z,8.60
2022-10-07T20:58:50.357Z,8.50
2022-10-07T21:01:17.342Z,8.50
2022-10-07T21:03:44.985Z,8.50
2022-10-07T21:06:12.022Z,8.40
2022-10-07T21:08:39.400Z,8.40
2022-10-07T21:11:06.542Z,8.50
2022-10-07T21:13:33.512Z,8.60
2022-10-07T21:16:04.137Z,8.60
2022-10-07T21:18:31.461Z,8.60
2022-10-07T21:20:58.689Z,8.70
2022-10-07T21:23:25.898Z,8.80
2022-10-07T21:25:52.739Z,8.80
2022-10-07T21:28:19.946Z,8.90
2022-10-07T21:30:58.993Z,9.00
2022-10-07T21:33:27.391Z,9.00
2022-10-07T21:36:04.936Z,9.10
2022-10-07T21:38:34.793Z,9.10
2022-10-07T21:41:12.087Z,9.10
2022-10-07T21:43:40.017Z,9.10
2022-10-07T21:46:07.151Z,9.00
2022-10-07T21:48:34.271Z,9.00
2022-10-07T21:51:04.624Z,8.90
2022-10-07T21:53:35.565Z,8.90
2022-10-07T21:56:06.083Z,8.90
2022-10-07T21:58:33.525Z,8.70
2022-10-07T22:01:04.778Z,8.60
2022-10-07T22:03:31.845Z,8.50
2022-10-07T22:06:02.634Z,8.40
2022-10-07T22:08:35.509Z,8.40
2022-10-07T22:11:11.639Z,8.30
2022-10-07T22:13:42.596Z,8.20
2022-10-07T22:16:13.579Z,8.30
2022-10-07T22:18:41.359Z,8.30
2022-10-07T22:21:20.594Z,8.40
2022-10-07T22:23:51.930Z,8.50
2022-10-07T22:26:19.808Z,8.60
2022-10-07T22:28:47.038Z,8.70
2022-10-07T22:31:15.144Z,8.80
2022-10-07T22:33:43.005Z,8.90
2022-10-07T22:36:11.153Z,8.90
2022-10-07T22:38:38.359Z,8.90
2022-10-07T22:41:06.314Z,8.80
2022-10-07T22:43:36.532Z,8.60
2022-10-07T22:46:04.025Z,8.60
2022-10-07T22:48:31.503Z,8.50
2022-10-07T22:51:07.253Z,8.50
2022-10-07T22:53:39.762Z,8.60
2022-10-07T22:56:07.993Z,8.70
2022-10-07T22:58:34.827Z,8.60
2022-10-07T23:01:05.264Z,8.60
2022-10-07T23:03:32.262Z,8.60
2022-10-07T23:06:00.193Z,8.60
2022-10-07T23:08:27.076Z,8.60
2022-10-07T23:10:58.609Z,8.60
2022-10-07T23:13:28.402Z,8.70
2022-10-07T23:15:59.950Z,8.70
2022-10-07T23:18:27.569Z,8.70
2022-10-07T23:21:01.089Z,8.70
2022-10-07T23:23:28.391Z,8.70
2022-10-07T23:25:55.309Z,8.60
2022-10-07T23:28:23.740Z,8.40
2022-10-07T23:30:50.743Z,8.10
2022-10-07T23:33:17.967Z,7.90
2022-10-07T23:35:45.338Z,7.80
2022-10-07T23:38:12.239Z,7.70
2022-10-07T23:40:39.180Z,7.50
2022-10-07T23:43:06.297Z,7.40
2022-10-07T23:45:33.712Z,7.60
2022-10-07T23:48:00.595Z,7.70
2022-10-07T23:50:27.934Z,7.80
2022-10-07T23:52:55.076Z,7.90
2022-10-07T23:55:22.008Z,8.00
2022-10-07T23:57:48.875Z,8.10
